GVR weather

Coronel Altino Machado de Oliveira Airport
Governador Valadares, Minas Gerais, Brazil

Public forecast

Using degrees Celsius for public forecast. Weather courtesy of forecast.io.

METAR (pilot weather report)

Closest report is Usiminas Airport, 44.9 nm (83.1 km) SW. Retrieved 2019/07/17 12:00 UTC (36 minutes ago):

SBIP 171200Z 19006KT 9999 OVC030 18/13 Q1024

TAF (pilot weather forecast)

Forecast is more than 12 hours old.

Closest forecast is Serro Airport, 83.8 nm (155.1 km) WNW. Retrieved 2009/11/03 09:30 UTC (10 years ago):

TAF SNSO 030930Z 0312/0418 06010G20KT CAVOK TEMPO 0315/0319 5000 HZ